Time;durP1;ratioP1;P1;durP2;ratioP2;P2;SDS_P1;SDS_P2;PMS_P1;PMS_P2;Temp;Humidity;BMP_temperature;BMP_pressure;BME280_temperature;BME280_humidity;BME280_pressure;Samples;Min_cycle;Max_cycle;Signal;HPM_P1;HPM_P2
2022/10/23 00:02:24;;;;;;;20.63;9.97;;;10.60;99.90;;;;;;5109233;28;20446;-75
2022/10/23 00:04:51;;;;;;;21.13;9.93;;;10.60;99.90;;;;;;5108726;28;20412;-75
2022/10/23 00:07:17;;;;;;;21.20;9.82;;;10.50;99.90;;;;;;5109271;28;20439;-75
2022/10/23 00:09:43;;;;;;;20.85;10.25;;;10.50;99.90;;;;;;5108593;28;20400;-75
2022/10/23 00:12:08;;;;;;;19.33;9.40;;;10.40;99.90;;;;;;5109090;27;20396;-75
2022/10/23 00:14:34;;;;;;;25.52;10.40;;;10.40;99.90;;;;;;5108804;28;20453;-75
2022/10/23 00:17:00;;;;;;;22.93;10.23;;;10.40;99.90;;;;;;5107934;28;20396;-75
2022/10/23 00:19:25;;;;;;;19.27;9.45;;;10.40;99.90;;;;;;5095083;28;20510;-75
2022/10/23 00:21:51;;;;;;;23.73;11.00;;;10.40;99.90;;;;;;5108876;28;20423;-75
2022/10/23 00:24:17;;;;;;;20.33;10.00;;;10.30;99.90;;;;;;5107670;28;20412;-75
2022/10/23 00:26:42;;;;;;;21.10;10.27;;;10.30;99.90;;;;;;5107861;28;20452;-75
2022/10/23 00:29:09;;;;;;;24.67;12.80;;;10.30;99.90;;;;;;5094212;28;20405;-75
2022/10/23 00:31:35;;;;;;;25.08;12.73;;;10.30;99.90;;;;;;5107362;28;20780;-75
2022/10/23 00:34:02;;;;;;;28.67;13.60;;;10.40;99.90;;;;;;5090905;28;20454;-75
2022/10/23 00:36:28;;;;;;;23.42;11.80;;;10.40;99.90;;;;;;5106087;28;20404;-74
2022/10/23 00:38:54;;;;;;;28.97;13.40;;;10.40;99.90;;;;;;5111846;28;20404;-75
2022/10/23 00:41:23;;;;;;;29.50;14.23;;;10.40;99.90;;;;;;5108453;28;20411;-75
2022/10/23 00:44:09;;;;;;;28.77;13.98;;;10.40;99.90;;;;;;5107507;28;20748;-75
2022/10/23 00:46:36;;;;;;;30.58;15.27;;;10.40;99.90;;;;;;5108270;28;20404;-74
2022/10/23 00:49:03;;;;;;;28.30;15.00;;;10.40;99.90;;;;;;5090555;28;20563;-74
2022/10/23 00:51:35;;;;;;;38.20;15.73;;;10.40;99.90;;;;;;5108224;28;20400;-75
2022/10/23 00:54:02;;;;;;;30.27;15.00;;;10.40;99.90;;;;;;5108266;28;20825;-75
2022/10/23 00:56:29;;;;;;;29.08;14.80;;;10.50;99.90;;;;;;5107961;28;20447;-75
2022/10/23 00:58:55;;;;;;;30.48;15.02;;;10.40;99.90;;;;;;5104316;28;20534;-75
2022/10/23 01:01:22;;;;;;;28.50;14.65;;;10.50;99.90;;;;;;5107302;28;20396;-75
2022/10/23 01:03:48;;;;;;;31.98;16.38;;;10.40;99.90;;;;;;5106952;28;20594;-75
2022/10/23 01:06:17;;;;;;;34.72;16.38;;;10.40;99.90;;;;;;5106852;28;21415;-75
2022/10/23 01:08:51;;;;;;;33.45;15.45;;;10.40;99.90;;;;;;5108083;28;20412;-75
2022/10/23 01:11:44;;;;;;;29.45;14.85;;;10.40;99.90;;;;;;5107913;28;20397;-75
2022/10/23 01:14:25;;;;;;;28.73;15.13;;;10.30;99.90;;;;;;5108073;28;20404;-75
2022/10/23 01:17:18;;;;;;;32.30;16.50;;;10.30;99.90;;;;;;5108029;28;20906;-75
2022/10/23 01:20:15;;;;;;;34.70;17.05;;;10.30;99.90;;;;;;5107184;28;20434;-75
2022/10/23 01:23:08;;;;;;;32.28;18.38;;;10.30;99.90;;;;;;5086930;28;20464;-75
2022/10/23 01:25:45;;;;;;;40.40;19.85;;;10.30;99.90;;;;;;5112448;28;20404;-74
2022/10/23 01:28:19;;;;;;;39.83;19.88;;;10.40;99.90;;;;;;5105768;27;20413;-75
2022/10/23 01:30:47;;;;;;;37.55;20.30;;;10.40;99.90;;;;;;5110024;28;20747;-75
2022/10/23 01:33:20;;;;;;;39.73;19.90;;;10.40;99.90;;;;;;5123710;27;20780;-75
2022/10/23 01:35:51;;;;;;;34.65;19.50;;;10.40;99.90;;;;;;5110678;28;20407;-75
2022/10/23 01:38:26;;;;;;;45.30;21.05;;;10.40;99.90;;;;;;5114993;27;20792;-75
2022/10/23 01:41:03;;;;;;;41.58;21.52;;;10.50;99.90;;;;;;5110601;27;20404;-75
2022/10/23 01:43:37;;;;;;;41.25;20.83;;;10.50;99.90;;;;;;5103865;28;20428;-74
2022/10/23 01:46:08;;;;;;;41.37;20.93;;;10.50;99.90;;;;;;5111338;28;20407;-75
2022/10/23 01:48:35;;;;;;;44.63;21.63;;;10.50;99.90;;;;;;5110365;28;20465;-75
2022/10/23 01:51:05;;;;;;;40.37;21.57;;;10.50;99.90;;;;;;5110248;27;20415;-75
2022/10/23 01:53:35;;;;;;;41.95;21.90;;;10.50;99.90;;;;;;5109974;28;20408;-75
2022/10/23 01:56:04;;;;;;;43.75;22.70;;;10.50;99.90;;;;;;5092766;28;20457;-74
2022/10/23 01:58:32;;;;;;;49.27;22.97;;;10.50;99.90;;;;;;5110867;28;20408;-74
2022/10/23 02:01:01;;;;;;;46.38;22.70;;;10.40;99.90;;;;;;5110111;28;20400;-75
2022/10/23 02:03:30;;;;;;;47.08;22.42;;;10.50;99.90;;;;;;5111538;28;20420;-75
2022/10/23 02:05:55;;;;;;;42.95;21.33;;;10.50;99.90;;;;;;5111711;27;20400;-75
2022/10/23 02:08:21;;;;;;;38.83;20.37;;;10.40;99.90;;;;;;5111109;28;20392;-75
2022/10/23 02:10:56;;;;;;;47.17;21.77;;;10.40;99.90;;;;;;5109763;28;20404;-74
2022/10/23 02:13:33;;;;;;;46.92;24.00;;;10.40;99.90;;;;;;5110974;28;20409;-75
2022/10/23 02:16:12;;;;;;;52.28;22.67;;;10.40;99.90;;;;;;5109896;28;20439;-74
2022/10/23 02:18:53;;;;;;;48.15;23.60;;;10.40;99.90;;;;;;5104604;27;20912;-74
2022/10/23 02:21:31;;;;;;;45.75;24.20;;;10.30;99.90;;;;;;5108818;28;20408;-74
2022/10/23 02:24:10;;;;;;;42.25;22.25;;;10.30;99.90;;;;;;5103388;28;20403;-75
2022/10/23 02:26:38;;;;;;;46.22;23.27;;;10.30;99.90;;;;;;5103799;27;20396;-75
2022/10/23 02:29:11;;;;;;;46.13;23.55;;;10.40;99.90;;;;;;5110483;28;20404;-74
2022/10/23 02:31:37;;;;;;;48.53;22.58;;;10.40;99.90;;;;;;5110265;28;20393;-74
2022/10/23 02:34:03;;;;;;;52.67;22.92;;;10.30;99.90;;;;;;5110204;28;20461;-74
2022/10/23 02:36:28;;;;;;;44.13;21.47;;;10.30;99.90;;;;;;5110895;28;20913;-75
2022/10/23 02:38:54;;;;;;;44.50;21.65;;;10.30;99.90;;;;;;5110552;28;20400;-75
2022/10/23 02:41:38;;;;;;;39.03;20.97;;;10.30;99.90;;;;;;5109509;28;20419;-75
2022/10/23 02:44:15;;;;;;;41.55;22.35;;;10.20;99.90;;;;;;5110575;28;20902;-75
2022/10/23 02:46:46;;;;;;;44.65;22.95;;;10.20;99.90;;;;;;5109073;28;20469;-74
2022/10/23 02:49:19;;;;;;;41.58;23.42;;;10.20;99.90;;;;;;5109890;28;20890;-74
2022/10/23 02:52:09;;;;;;;49.58;24.20;;;10.20;99.90;;;;;;5109986;28;20450;-74
2022/10/23 02:54:44;;;;;;;43.55;23.98;;;10.30;99.90;;;;;;5102726;28;20496;-75
2022/10/23 02:57:32;;;;;;;48.40;24.60;;;10.30;99.90;;;;;;5094078;27;20480;-74
2022/10/23 03:00:14;;;;;;;46.37;24.30;;;10.30;99.90;;;;;;5103657;27;20407;-74
2022/10/23 03:02:49;;;;;;;44.22;22.63;;;10.40;99.90;;;;;;5109924;28;20455;-74
2022/10/23 03:05:21;;;;;;;43.25;23.83;;;10.40;99.90;;;;;;5108661;28;20396;-75
2022/10/23 03:07:48;;;;;;;48.80;23.43;;;10.40;99.90;;;;;;5110325;28;20491;-75
2022/10/23 03:10:13;;;;;;;46.45;22.90;;;10.30;99.90;;;;;;5107871;28;20437;-75
2022/10/23 03:12:39;;;;;;;42.97;23.87;;;10.30;99.90;;;;;;5109208;28;20836;-75
2022/10/23 03:15:06;;;;;;;39.78;22.23;;;10.30;99.90;;;;;;5091669;28;20502;-74
2022/10/23 03:17:32;;;;;;;45.88;23.98;;;10.30;99.90;;;;;;5110054;28;20400;-74
2022/10/23 03:19:57;;;;;;;46.97;24.33;;;10.40;99.90;;;;;;5108825;28;20396;-74
2022/10/23 03:22:23;;;;;;;43.72;24.25;;;10.40;99.90;;;;;;5109353;28;20430;-75
2022/10/23 03:24:49;;;;;;;45.22;24.63;;;10.40;99.90;;;;;;5108660;28;20397;-74
2022/10/23 03:27:15;;;;;;;47.73;23.77;;;10.50;99.90;;;;;;5109778;28;20400;-75
2022/10/23 03:29:41;;;;;;;45.03;22.90;;;10.50;99.90;;;;;;5110840;27;20522;-74
2022/10/23 03:32:07;;;;;;;47.63;23.45;;;10.50;99.90;;;;;;5109111;28;20400;-74
2022/10/23 03:34:33;;;;;;;43.15;23.65;;;10.50;99.90;;;;;;5109518;28;21283;-74
2022/10/23 03:36:59;;;;;;;46.15;24.17;;;10.50;99.90;;;;;;5108272;28;20405;-74
2022/10/23 03:39:25;;;;;;;46.58;23.55;;;10.50;99.90;;;;;;5109612;28;20897;-74
2022/10/23 03:41:51;;;;;;;41.17;22.98;;;10.60;99.90;;;;;;5108673;28;20420;-74
2022/10/23 03:44:17;;;;;;;46.92;23.65;;;10.60;99.90;;;;;;5109786;28;20882;-74
2022/10/23 03:46:43;;;;;;;43.13;22.60;;;10.60;99.90;;;;;;5107991;28;20408;-74
2022/10/23 03:49:08;;;;;;;46.83;24.57;;;10.60;99.90;;;;;;5109556;28;20431;-74
2022/10/23 03:51:34;;;;;;;51.88;24.20;;;10.60;99.90;;;;;;5108384;28;20530;-75
2022/10/23 03:54:00;;;;;;;43.40;22.90;;;10.60;99.90;;;;;;5109083;28;20408;-75
2022/10/23 03:56:26;;;;;;;46.83;23.13;;;10.60;99.90;;;;;;5108998;28;20407;-74
2022/10/23 03:58:51;;;;;;;45.80;23.35;;;10.60;99.90;;;;;;5113568;27;20438;-74
2022/10/23 04:01:17;;;;;;;42.33;22.97;;;10.60;99.90;;;;;;5091087;27;20898;-74
2022/10/23 04:03:43;;;;;;;49.05;24.08;;;10.60;99.90;;;;;;5107704;28;20436;-75
2022/10/23 04:06:08;;;;;;;43.70;23.67;;;10.60;99.90;;;;;;5107667;28;20404;-74
2022/10/23 04:08:34;;;;;;;49.15;22.77;;;10.60;99.90;;;;;;5107975;28;20407;-74
2022/10/23 04:11:00;;;;;;;44.08;22.10;;;10.60;99.90;;;;;;5108199;28;20411;-74
2022/10/23 04:13:25;;;;;;;42.97;22.47;;;10.50;99.90;;;;;;5108736;28;20400;-74
2022/10/23 04:15:51;;;;;;;43.60;21.90;;;10.60;99.90;;;;;;5109230;28;20492;-75
2022/10/23 04:18:17;;;;;;;39.00;21.45;;;10.50;99.90;;;;;;5108582;28;20754;-74
2022/10/23 04:20:46;;;;;;;39.17;19.97;;;10.50;99.90;;;;;;5108841;28;20415;-74
2022/10/23 04:23:11;;;;;;;38.33;21.58;;;10.50;99.90;;;;;;5108404;28;20424;-74
2022/10/23 04:25:37;;;;;;;40.30;21.60;;;10.60;99.90;;;;;;5108728;28;20400;-74
2022/10/23 04:28:03;;;;;;;41.70;21.85;;;10.60;99.90;;;;;;5107745;28;20420;-75
2022/10/23 04:30:28;;;;;;;39.50;21.87;;;10.60;99.90;;;;;;5107819;28;20408;-75
2022/10/23 04:32:54;;;;;;;41.05;20.95;;;10.60;99.90;;;;;;5106965;28;20397;-74
2022/10/23 04:35:19;;;;;;;44.60;22.00;;;10.60;99.90;;;;;;5107376;28;20408;-74
2022/10/23 04:37:45;;;;;;;35.80;20.45;;;10.60;99.90;;;;;;5101391;27;20488;-74
2022/10/23 04:40:11;;;;;;;41.67;21.63;;;10.60;99.90;;;;;;5108609;28;20435;-74
2022/10/23 04:42:37;;;;;;;35.80;20.15;;;10.60;99.90;;;;;;5107888;28;20423;-74
2022/10/23 04:45:03;;;;;;;39.38;21.17;;;10.50;99.90;;;;;;5108375;28;20484;-74
2022/10/23 04:47:29;;;;;;;39.55;20.50;;;10.50;99.90;;;;;;5107824;28;20392;-75
2022/10/23 04:49:55;;;;;;;33.42;18.75;;;10.50;99.90;;;;;;5090884;28;20885;-74
2022/10/23 04:52:20;;;;;;;37.10;18.87;;;10.50;99.90;;;;;;5107257;28;20407;-74
2022/10/23 04:54:47;;;;;;;37.25;18.92;;;10.40;99.90;;;;;;5108389;28;21006;-74
2022/10/23 04:57:13;;;;;;;41.47;19.90;;;10.40;99.90;;;;;;5108535;28;20389;-74
2022/10/23 04:59:38;;;;;;;34.75;19.23;;;10.40;99.90;;;;;;5090288;28;20906;-75
2022/10/23 05:02:04;;;;;;;35.53;19.53;;;10.30;99.90;;;;;;5107131;28;20420;-74
2022/10/23 05:04:30;;;;;;;37.25;19.45;;;10.30;99.90;;;;;;5090194;28;20404;-75
2022/10/23 05:06:55;;;;;;;36.35;19.40;;;10.30;99.90;;;;;;5107043;28;20407;-75
2022/10/23 05:09:21;;;;;;;37.30;19.53;;;10.30;99.90;;;;;;5107678;28;20400;-74
2022/10/23 05:11:47;;;;;;;35.22;18.48;;;10.30;99.90;;;;;;5109755;27;20396;-75
2022/10/23 05:14:12;;;;;;;35.53;18.92;;;10.30;99.90;;;;;;5107204;28;20475;-74
2022/10/23 05:16:50;;;;;;;32.70;18.67;;;10.30;99.90;;;;;;5107543;28;20755;-74
2022/10/23 05:19:22;;;;;;;36.85;19.08;;;10.30;99.90;;;;;;5108090;28;20503;-74
2022/10/23 05:21:55;;;;;;;36.08;19.95;;;10.30;99.90;;;;;;5095693;28;20420;-74
2022/10/23 05:24:24;;;;;;;33.47;19.27;;;10.30;99.90;;;;;;5108217;28;20403;-75
2022/10/23 05:26:51;;;;;;;37.92;19.80;;;10.30;99.90;;;;;;5116340;28;20386;-74
2022/10/23 05:29:20;;;;;;;34.95;21.10;;;10.30;99.90;;;;;;5111793;27;21239;-74
2022/10/23 05:31:50;;;;;;;33.83;19.02;;;10.40;99.90;;;;;;5112768;28;20475;-74
2022/10/23 05:34:20;;;;;;;38.28;20.30;;;10.30;99.90;;;;;;5106464;28;20408;-74
2022/10/23 05:36:46;;;;;;;38.88;20.80;;;10.40;99.90;;;;;;5106423;28;20419;-74
2022/10/23 05:39:12;;;;;;;36.10;19.60;;;10.40;99.90;;;;;;5107114;28;20399;-74
2022/10/23 05:41:37;;;;;;;38.27;21.23;;;10.40;99.90;;;;;;5106402;28;20416;-74
2022/10/23 05:44:03;;;;;;;38.15;21.33;;;10.40;99.90;;;;;;5108121;28;20487;-74
2022/10/23 05:46:29;;;;;;;39.90;20.83;;;10.40;99.90;;;;;;5108232;28;20808;-74
2022/10/23 05:48:54;;;;;;;38.25;20.30;;;10.40;99.90;;;;;;5106680;28;20404;-74
2022/10/23 05:51:21;;;;;;;37.40;20.30;;;10.40;99.90;;;;;;5107456;28;20479;-74
2022/10/23 05:53:51;;;;;;;39.20;20.30;;;10.40;99.90;;;;;;5106853;28;20401;-74
2022/10/23 05:56:17;;;;;;;38.80;20.30;;;10.40;99.90;;;;;;5107222;28;20392;-74
2022/10/23 05:58:43;;;;;;;41.50;22.95;;;10.40;99.90;;;;;;5113660;28;20855;-74
2022/10/23 06:01:11;;;;;;;40.78;22.00;;;10.40;99.90;;;;;;5106035;28;20529;-75
2022/10/23 06:03:38;;;;;;;41.53;20.90;;;10.40;99.90;;;;;;5106441;28;20428;-74
2022/10/23 06:06:05;;;;;;;41.67;22.05;;;10.40;99.90;;;;;;5106857;28;20400;-75
2022/10/23 06:08:31;;;;;;;40.85;21.35;;;10.40;99.90;;;;;;5108714;28;20450;-74
2022/10/23 06:10:57;;;;;;;46.40;21.58;;;10.30;99.90;;;;;;5110458;28;20860;-74
2022/10/23 06:13:22;;;;;;;36.88;20.52;;;10.40;99.90;;;;;;5110116;28;20451;-75
2022/10/23 06:15:48;;;;;;;38.37;21.33;;;10.30;99.90;;;;;;5108236;28;20445;-74
2022/10/23 06:18:14;;;;;;;40.05;20.48;;;10.30;99.90;;;;;;5110312;27;20399;-74
2022/10/23 06:20:39;;;;;;;37.60;21.37;;;10.40;99.90;;;;;;5109977;28;20396;-74
2022/10/23 06:23:06;;;;;;;41.67;22.13;;;10.30;99.90;;;;;;5109779;28;20420;-74
2022/10/23 06:25:31;;;;;;;38.38;21.60;;;10.30;99.90;;;;;;5110363;28;20475;-74
2022/10/23 06:27:57;;;;;;;43.15;22.67;;;10.30;99.90;;;;;;5109005;28;20538;-74
2022/10/23 06:30:24;;;;;;;37.58;21.25;;;10.40;99.90;;;;;;5109467;28;20401;-74
2022/10/23 06:32:50;;;;;;;38.78;21.60;;;10.40;99.90;;;;;;5109980;28;20799;-75
2022/10/23 06:35:16;;;;;;;44.20;22.92;;;10.40;99.90;;;;;;5109884;28;20475;-74
2022/10/23 06:37:41;;;;;;;39.97;21.65;;;10.40;99.90;;;;;;5112758;27;20535;-74
2022/10/23 06:40:07;;;;;;;40.87;22.30;;;10.50;99.90;;;;;;5110104;28;20428;-74
2022/10/23 06:42:34;;;;;;;38.47;21.15;;;10.40;99.90;;;;;;5101012;28;20722;-74
2022/10/23 06:44:59;;;;;;;41.22;21.02;;;10.50;99.90;;;;;;5108392;28;20977;-74
2022/10/23 06:47:25;;;;;;;42.33;20.92;;;10.50;99.90;;;;;;5108569;28;20404;-74
2022/10/23 06:49:50;;;;;;;38.60;20.77;;;10.50;99.90;;;;;;5109697;27;20396;-74
2022/10/23 06:52:16;;;;;;;35.95;19.98;;;10.50;99.90;;;;;;5109407;28;20400;-75
2022/10/23 06:54:42;;;;;;;35.10;20.17;;;10.50;99.90;;;;;;5109305;28;20475;-74
2022/10/23 06:57:07;;;;;;;39.17;21.00;;;10.50;99.90;;;;;;5108089;28;20490;-74
2022/10/23 06:59:33;;;;;;;39.47;19.63;;;10.50;99.90;;;;;;5109015;28;20401;-74
2022/10/23 07:01:59;;;;;;;36.92;20.27;;;10.60;99.90;;;;;;5109175;28;20495;-74
2022/10/23 07:04:25;;;;;;;32.40;18.75;;;10.60;99.90;;;;;;5110397;28;20924;-74
2022/10/23 07:06:50;;;;;;;38.53;19.47;;;10.60;99.90;;;;;;5108868;28;20762;-74
2022/10/23 07:09:16;;;;;;;33.88;19.08;;;10.60;99.90;;;;;;5110263;28;20412;-74
2022/10/23 07:11:42;;;;;;;31.30;17.47;;;10.70;99.90;;;;;;5108343;28;20408;-75
2022/10/23 07:14:07;;;;;;;30.23;17.60;;;10.70;99.90;;;;;;5109036;28;20526;-75
2022/10/23 07:16:33;;;;;;;31.13;17.20;;;10.70;99.90;;;;;;5110255;28;20400;-75
2022/10/23 07:19:00;;;;;;;31.90;16.83;;;10.80;99.90;;;;;;5108601;28;20790;-75
2022/10/23 07:21:31;;;;;;;30.77;16.67;;;10.80;99.90;;;;;;5107952;28;20408;-74
2022/10/23 07:23:57;;;;;;;32.65;16.42;;;10.80;99.90;;;;;;5109466;28;20432;-74
2022/10/23 07:26:23;;;;;;;31.73;16.67;;;10.90;99.90;;;;;;5109484;28;20404;-75
2022/10/23 07:28:54;;;;;;;30.15;16.45;;;10.90;99.90;;;;;;5101505;28;20955;-74
2022/10/23 07:31:24;;;;;;;28.70;15.55;;;10.90;99.90;;;;;;5100421;27;20403;-74
2022/10/23 07:33:50;;;;;;;30.23;15.73;;;11.00;99.90;;;;;;5074326;28;20502;-74
2022/10/23 07:36:17;;;;;;;26.10;15.87;;;11.00;99.90;;;;;;5095952;27;20420;-75
2022/10/23 07:38:42;;;;;;;29.73;15.85;;;11.00;99.90;;;;;;5097199;27;20529;-75
2022/10/23 07:41:09;;;;;;;26.33;14.57;;;11.10;99.90;;;;;;5095422;28;20525;-75
2022/10/23 07:43:35;;;;;;;28.98;14.93;;;11.10;99.90;;;;;;5088226;28;20542;-75
2022/10/23 07:46:01;;;;;;;25.20;14.52;;;11.20;99.90;;;;;;5094116;27;20401;-75
2022/10/23 07:48:28;;;;;;;23.88;14.93;;;11.30;99.90;;;;;;5092404;28;20932;-75
2022/10/23 07:50:59;;;;;;;25.48;14.65;;;11.30;99.90;;;;;;5097625;28;20405;-75
2022/10/23 07:53:25;;;;;;;23.92;13.88;;;11.40;99.90;;;;;;5093858;27;20496;-75
2022/10/23 07:55:56;;;;;;;23.77;14.20;;;11.40;99.90;;;;;;5095077;27;20443;-75
2022/10/23 07:58:22;;;;;;;28.40;14.32;;;11.50;99.90;;;;;;5092341;27;20402;-76
2022/10/23 08:00:57;;;;;;;28.45;14.48;;;11.50;99.90;;;;;;5088012;28;20966;-76
2022/10/23 08:03:24;;;;;;;24.45;13.70;;;11.50;99.90;;;;;;5095210;27;20446;-75
2022/10/23 08:05:52;;;;;;;25.65;13.75;;;11.60;99.90;;;;;;5099706;27;20399;-76
2022/10/23 08:08:18;;;;;;;26.80;13.02;;;11.50;99.90;;;;;;5098208;28;20477;-76
2022/10/23 08:10:45;;;;;;;22.33;12.77;;;11.60;99.90;;;;;;5095106;28;20554;-76
2022/10/23 08:13:12;;;;;;;24.90;13.32;;;11.60;99.90;;;;;;5103802;28;20443;-76
2022/10/23 08:15:38;;;;;;;25.63;12.82;;;11.70;99.90;;;;;;5107549;28;20404;-76
2022/10/23 08:18:03;;;;;;;24.67;12.75;;;11.70;99.90;;;;;;5111299;27;20418;-76
2022/10/23 08:20:29;;;;;;;22.07;12.30;;;11.80;99.90;;;;;;5109120;28;20925;-77
2022/10/23 08:22:55;;;;;;;21.67;12.50;;;11.80;99.90;;;;;;5087061;28;21147;-77
2022/10/23 08:25:21;;;;;;;19.02;11.98;;;11.90;99.90;;;;;;5102615;28;20401;-77
2022/10/23 08:27:46;;;;;;;25.53;12.50;;;12.00;99.90;;;;;;5098513;28;20408;-77
2022/10/23 08:30:12;;;;;;;23.55;12.55;;;12.00;99.90;;;;;;5106381;27;20412;-77
2022/10/23 08:32:38;;;;;;;24.33;12.93;;;12.10;99.90;;;;;;5099584;27;20389;-77
2022/10/23 08:35:04;;;;;;;20.55;12.05;;;12.10;99.90;;;;;;5108130;28;20427;-77
2022/10/23 08:37:30;;;;;;;18.38;12.02;;;12.20;99.90;;;;;;5106020;28;20920;-77
2022/10/23 08:39:55;;;;;;;21.35;11.02;;;12.20;99.90;;;;;;5107843;27;21375;-77
2022/10/23 08:42:25;;;;;;;22.80;11.43;;;12.30;99.90;;;;;;5108253;28;20412;-77
2022/10/23 08:45:20;;;;;;;18.95;11.38;;;12.30;99.90;;;;;;5108223;28;20473;-77
2022/10/23 08:47:53;;;;;;;20.50;11.18;;;12.40;99.90;;;;;;5107444;28;20445;-77
2022/10/23 08:50:25;;;;;;;17.73;10.40;;;12.50;99.90;;;;;;5107696;28;20404;-77
2022/10/23 08:53:13;;;;;;;19.08;10.57;;;12.60;99.90;;;;;;5107825;28;20742;-77
2022/10/23 08:55:45;;;;;;;20.30;10.00;;;12.60;99.90;;;;;;5108080;28;20502;-77
2022/10/23 08:58:22;;;;;;;17.43;9.73;;;12.70;99.90;;;;;;5106747;28;20400;-74
2022/10/23 09:00:49;;;;;;;18.98;9.95;;;12.70;99.90;;;;;;5107877;28;20408;-75
2022/10/23 09:03:15;;;;;;;16.67;9.45;;;12.80;99.90;;;;;;5095361;28;20473;-75
2022/10/23 09:06:07;;;;;;;16.92;9.15;;;12.80;99.90;;;;;;5106990;28;20457;-75
2022/10/23 09:08:39;;;;;;;14.82;9.20;;;12.90;99.90;;;;;;5089473;28;20412;-75
2022/10/23 09:11:32;;;;;;;15.20;8.88;;;12.90;99.90;;;;;;5108080;28;20902;-75
2022/10/23 09:14:26;;;;;;;14.93;8.85;;;13.00;99.90;;;;;;5107047;28;20412;-76
2022/10/23 09:17:22;;;;;;;15.52;8.80;;;13.10;99.90;;;;;;5106390;28;20415;-75
2022/10/23 09:19:53;;;;;;;16.73;8.82;;;13.20;99.90;;;;;;5098545;28;20412;-75
2022/10/23 09:22:19;;;;;;;15.60;8.40;;;13.30;99.90;;;;;;5107074;28;20416;-75
2022/10/23 09:24:44;;;;;;;15.45;8.68;;;13.40;99.90;;;;;;5113350;28;20986;-76
2022/10/23 09:27:16;;;;;;;16.13;8.30;;;13.50;99.90;;;;;;5107943;28;20434;-75
2022/10/23 09:29:53;;;;;;;15.05;8.00;;;13.50;99.90;;;;;;5097365;28;20402;-75
2022/10/23 09:32:30;;;;;;;15.60;8.43;;;13.60;99.90;;;;;;5106936;28;20804;-75
2022/10/23 09:34:56;;;;;;;15.52;8.52;;;13.70;99.90;;;;;;5102086;28;20400;-75
2022/10/23 09:37:27;;;;;;;13.00;9.00;;;13.90;99.90;;;;;;5103446;28;20413;-75
2022/10/23 09:40:17;;;;;;;15.40;7.68;;;14.10;99.90;;;;;;5101869;28;20423;-75
2022/10/23 09:42:58;;;;;;;13.27;7.60;;;14.30;99.90;;;;;;5110578;27;20422;-75
2022/10/23 09:45:32;;;;;;;13.10;7.40;;;14.60;99.90;;;;;;5110409;28;20407;-75
2022/10/23 09:48:09;;;;;;;12.13;7.37;;;14.80;99.90;;;;;;5112240;28;20397;-75
2022/10/23 09:50:35;;;;;;;13.15;7.80;;;15.00;99.90;;;;;;5110904;27;20408;-75
2022/10/23 09:53:01;;;;;;;15.13;7.97;;;15.00;99.90;;;;;;5110667;28;20474;-75
2022/10/23 09:55:27;;;;;;;14.95;7.75;;;15.20;99.90;;;;;;5110709;27;20721;-75
2022/10/23 09:57:54;;;;;;;13.25;7.97;;;15.30;99.90;;;;;;5111616;28;20475;-75
2022/10/23 10:00:23;;;;;;;11.85;7.68;;;15.50;99.90;;;;;;5103531;28;20422;-76
2022/10/23 10:03:01;;;;;;;13.02;7.57;;;15.70;99.90;;;;;;5111292;28;20436;-76
2022/10/23 10:05:39;;;;;;;12.85;6.70;;;15.80;99.90;;;;;;5093124;28;20436;-75
2022/10/23 10:08:20;;;;;;;13.13;6.90;;;16.00;99.90;;;;;;5101671;28;20423;-75
2022/10/23 10:10:53;;;;;;;13.02;6.30;;;16.00;99.90;;;;;;5097907;28;20460;-76
2022/10/23 10:13:25;;;;;;;10.85;6.80;;;16.10;99.90;;;;;;5104018;28;20923;-75
2022/10/23 10:15:58;;;;;;;12.07;7.05;;;16.10;99.90;;;;;;5107384;28;20779;-75
2022/10/23 10:18:36;;;;;;;12.80;7.00;;;16.10;99.90;;;;;;5110781;28;20541;-75
2022/10/23 10:21:26;;;;;;;14.10;6.67;;;16.10;99.90;;;;;;5110606;28;20412;-75
2022/10/23 10:24:07;;;;;;;12.32;7.13;;;16.10;99.90;;;;;;5109567;28;20432;-75
2022/10/23 10:26:50;;;;;;;10.90;6.90;;;16.10;99.90;;;;;;5110811;28;20401;-75
2022/10/23 10:29:34;;;;;;;14.45;7.28;;;16.10;99.90;;;;;;5097149;28;20903;-75
2022/10/23 10:32:20;;;;;;;14.82;7.20;;;16.10;99.90;;;;;;5109307;28;20396;-75
2022/10/23 10:35:18;;;;;;;12.13;7.45;;;16.10;99.90;;;;;;5087820;27;21068;-75
2022/10/23 10:38:22;;;;;;;13.10;7.18;;;16.20;99.90;;;;;;5098572;28;20461;-75
2022/10/23 10:41:21;;;;;;;14.57;6.60;;;16.30;99.90;;;;;;5097597;28;20409;-75
2022/10/23 10:44:18;;;;;;;12.77;6.30;;;16.40;99.90;;;;;;5110026;27;20424;-75
2022/10/23 10:47:20;;;;;;;9.73;5.90;;;16.50;99.90;;;;;;5110043;27;20769;-75
2022/10/23 10:50:23;;;;;;;9.95;5.85;;;16.70;99.90;;;;;;5109829;28;20401;-75
2022/10/23 10:53:32;;;;;;;11.10;5.40;;;16.90;99.90;;;;;;5114179;27;20404;-75
2022/10/23 10:56:00;;;;;;;10.27;5.70;;;17.00;99.90;;;;;;5111747;27;20418;-75
2022/10/23 10:58:45;;;;;;;9.98;5.80;;;17.20;99.90;;;;;;5095982;28;20758;-75
2022/10/23 11:01:50;;;;;;;8.67;5.57;;;17.30;99.90;;;;;;5105664;28;20488;-75
2022/10/23 11:04:56;;;;;;;8.80;5.78;;;17.30;99.90;;;;;;5110013;28;20975;-75
2022/10/23 11:07:25;;;;;;;8.70;5.93;;;17.30;99.90;;;;;;5110046;28;20407;-76
2022/10/23 11:09:51;;;;;;;9.23;5.78;;;17.30;99.90;;;;;;5097788;28;20727;-75
2022/10/23 11:12:21;;;;;;;9.90;5.83;;;17.20;99.90;;;;;;5108365;28;20404;-75
2022/10/23 11:14:49;;;;;;;10.88;5.70;;;17.20;99.90;;;;;;5108433;28;20416;-75
2022/10/23 11:17:24;;;;;;;10.25;5.70;;;17.10;99.90;;;;;;5110160;28;20422;-75
2022/10/23 11:20:14;;;;;;;10.20;5.90;;;16.90;99.90;;;;;;5108807;28;20404;-75
2022/10/23 11:23:02;;;;;;;14.18;6.47;;;16.80;99.90;;;;;;5108774;28;20467;-75
2022/10/23 11:25:40;;;;;;;12.20;6.00;;;16.70;99.90;;;;;;5112211;27;20412;-75
2022/10/23 11:28:22;;;;;;;14.93;6.20;;;16.70;99.90;;;;;;5109614;27;20416;-75
2022/10/23 11:31:07;;;;;;;9.88;5.25;;;16.70;99.90;;;;;;5109247;28;20412;-75
2022/10/23 11:33:52;;;;;;;11.27;5.57;;;16.60;99.90;;;;;;5109766;28;20404;-76
2022/10/23 11:36:40;;;;;;;9.68;5.20;;;16.60;99.90;;;;;;5107636;28;20447;-75
2022/10/23 11:39:16;;;;;;;10.43;5.77;;;16.60;99.90;;;;;;5095812;28;20420;-75
2022/10/23 11:41:52;;;;;;;9.43;5.57;;;16.60;99.90;;;;;;5090458;28;20408;-75
2022/10/23 11:44:45;;;;;;;10.27;5.30;;;16.60;99.90;;;;;;5116358;27;20864;-75
2022/10/23 11:47:38;;;;;;;9.68;4.82;;;16.60;99.90;;;;;;5096177;28;20774;-75
2022/10/23 11:50:06;;;;;;;9.60;5.10;;;16.60;99.90;;;;;;5109318;28;20405;-75
2022/10/23 11:52:34;;;;;;;10.85;5.32;;;16.60;99.90;;;;;;5107348;28;20412;-75
2022/10/23 11:55:15;;;;;;;9.73;5.05;;;16.70;99.90;;;;;;5110663;27;20410;-75
2022/10/23 11:57:40;;;;;;;10.20;5.65;;;16.60;99.90;;;;;;5113575;27;20453;-75
2022/10/23 12:00:22;;;;;;;9.67;4.80;;;16.60;99.90;;;;;;5107279;28;20405;-75
2022/10/23 12:02:53;;;;;;;10.00;4.78;;;16.60;99.90;;;;;;5110025;27;20914;-75
2022/10/23 12:05:34;;;;;;;10.45;5.07;;;16.60;99.90;;;;;;5116293;27;20396;-75
2022/10/23 12:08:03;;;;;;;9.27;5.30;;;16.50;99.90;;;;;;5107040;28;20424;-75
2022/10/23 12:10:35;;;;;;;10.70;5.53;;;16.50;99.90;;;;;;5107128;28;20495;-75
2022/10/23 12:13:04;;;;;;;10.23;4.97;;;16.40;99.90;;;;;;5099367;28;20409;-75
2022/10/23 12:15:33;;;;;;;11.68;5.65;;;16.50;99.90;;;;;;5102233;28;20423;-75
2022/10/23 12:18:16;;;;;;;10.13;5.22;;;16.50;99.90;;;;;;5107196;28;20924;-75
2022/10/23 12:20:53;;;;;;;8.43;4.63;;;16.40;99.90;;;;;;5108003;28;20922;-75
2022/10/23 12:23:34;;;;;;;9.75;4.80;;;16.40;99.90;;;;;;5107645;28;20933;-74
2022/10/23 12:26:08;;;;;;;10.75;5.25;;;16.30;99.90;;;;;;5107940;28;20820;-75
2022/10/23 12:29:09;;;;;;;10.45;4.88;;;16.30;99.90;;;;;;5114163;27;20477;-75
2022/10/23 12:31:47;;;;;;;9.65;4.50;;;16.30;99.90;;;;;;5106826;28;20523;-75
2022/10/23 12:34:57;;;;;;;10.77;4.73;;;16.30;99.90;;;;;;5096009;27;20408;-75
2022/10/23 12:37:48;;;;;;;7.85;4.45;;;16.30;99.90;;;;;;5091093;28;20972;-75
2022/10/23 12:40:13;;;;;;;8.77;4.90;;;16.30;99.90;;;;;;5106280;28;20511;-75
2022/10/23 12:42:48;;;;;;;7.97;4.30;;;16.30;99.90;;;;;;5102171;28;20480;-75
2022/10/23 12:45:18;;;;;;;9.90;4.80;;;16.30;99.90;;;;;;5098218;28;20442;-75
2022/10/23 12:47:45;;;;;;;10.80;4.93;;;16.30;99.90;;;;;;5106279;28;20419;-76
2022/10/23 12:50:20;;;;;;;8.07;4.40;;;16.40;99.90;;;;;;5107402;28;20404;-76
2022/10/23 12:52:56;;;;;;;10.38;4.45;;;16.30;99.90;;;;;;5080351;28;20851;-74
2022/10/23 12:55:24;;;;;;;10.00;4.68;;;16.40;99.90;;;;;;5107497;28;20542;-75